createdAt,value
2018-05-24T00:01:47.418Z,75.53
2018-05-24T00:04:14.726Z,75.63
2018-05-24T00:06:41.225Z,75.73
2018-05-24T00:09:08.049Z,75.89
2018-05-24T00:11:34.426Z,75.51
2018-05-24T00:14:00.917Z,76.12
2018-05-24T00:16:27.326Z,76.40
2018-05-24T00:18:53.729Z,76.64
2018-05-24T00:21:20.124Z,76.52
2018-05-24T00:23:46.526Z,76.52
2018-05-24T00:26:13.717Z,76.48
2018-05-24T00:28:40.071Z,75.73
2018-05-24T00:31:06.563Z,76.04
2018-05-24T00:33:33.015Z,76.12
2018-05-24T00:35:59.743Z,76.31
2018-05-24T00:38:26.301Z,75.57
2018-05-24T00:40:52.672Z,75.75
2018-05-24T00:43:19.343Z,76.01
2018-05-24T00:45:45.770Z,74.78
2018-05-24T00:48:12.275Z,75.02
2018-05-24T00:50:38.777Z,74.75
2018-05-24T00:53:05.373Z,75.09
2018-05-24T00:55:39.824Z,75.25
2018-05-24T00:58:06.262Z,75.16
2018-05-24T01:00:32.656Z,75.03
2018-05-24T01:02:59.065Z,74.17
2018-05-24T01:05:25.462Z,74.44
2018-05-24T01:07:51.862Z,74.39
2018-05-24T01:10:19.097Z,74.91
2018-05-24T01:12:46.325Z,75.68
2018-05-24T01:15:12.812Z,75.64
2018-05-24T01:17:39.216Z,75.93
2018-05-24T01:20:06.373Z,76.24
2018-05-24T01:22:33.506Z,75.54
2018-05-24T01:24:59.931Z,75.51
2018-05-24T01:27:26.331Z,75.62
2018-05-24T01:29:52.762Z,76.25
2018-05-24T01:32:19.187Z,75.93
2018-05-24T01:34:45.563Z,75.35
2018-05-24T01:37:30.563Z,75.49
2018-05-24T01:39:56.973Z,75.61
2018-05-24T01:42:24.117Z,76.13
2018-05-24T01:44:51.339Z,76.22
2018-05-24T01:47:17.735Z,76.56
2018-05-24T01:49:44.176Z,76.21
2018-05-24T01:52:10.677Z,76.18
2018-05-24T01:54:37.815Z,76.38
2018-05-24T01:57:05.312Z,76.56
2018-05-24T01:59:31.673Z,76.03
2018-05-24T02:01:58.063Z,75.94
2018-05-24T02:04:24.449Z,76.08
2018-05-24T02:06:50.895Z,75.89
2018-05-24T02:09:17.268Z,75.87
2018-05-24T02:11:43.657Z,75.92
2018-05-24T02:14:10.985Z,76.21
2018-05-24T02:16:37.416Z,76.93
2018-05-24T02:19:03.864Z,77.55
2018-05-24T02:21:30.273Z,77.50
2018-05-24T02:23:58.362Z,77.70
2018-05-24T02:26:26.285Z,77.95
2018-05-24T02:28:54.415Z,78.15
2018-05-24T02:31:20.967Z,78.69
2018-05-24T02:33:47.463Z,78.94
2018-05-24T02:36:13.855Z,79.09
2018-05-24T02:38:40.242Z,79.23
2018-05-24T02:41:07.031Z,79.29
2018-05-24T02:43:33.671Z,79.32
2018-05-24T02:46:00.410Z,79.33
2018-05-24T02:48:26.847Z,79.37
2018-05-24T02:50:53.225Z,79.46
2018-05-24T02:53:19.920Z,78.74
2018-05-24T02:55:46.320Z,78.97
2018-05-24T02:58:13.486Z,79.25
2018-05-24T03:00:40.612Z,79.15
2018-05-24T03:03:07.044Z,79.59
2018-05-24T03:05:33.423Z,79.20
2018-05-24T03:07:59.913Z,79.43
2018-05-24T03:10:27.415Z,79.48
2018-05-24T03:12:53.795Z,78.68
2018-05-24T03:15:20.307Z,78.23
2018-05-24T03:17:47.116Z,78.13
2018-05-24T03:20:13.537Z,78.21
2018-05-24T03:22:40.655Z,77.82
2018-05-24T03:25:14.014Z,77.94
2018-05-24T03:27:40.414Z,78.17
2018-05-24T03:30:06.846Z,78.93
2018-05-24T03:32:33.984Z,78.40
2018-05-24T03:35:01.161Z,78.92
2018-05-24T03:37:27.579Z,79.27
2018-05-24T03:39:53.947Z,80.15
2018-05-24T03:42:20.322Z,79.67
2018-05-24T03:44:46.783Z,78.89
2018-05-24T03:47:13.199Z,78.93
2018-05-24T03:49:40.669Z,80.08
2018-05-24T03:52:07.165Z,80.04
2018-05-24T03:54:33.545Z,80.75
2018-05-24T03:57:00.025Z,81.37
2018-05-24T04:03:01.778Z,81.06
2018-05-24T04:05:28.143Z,81.09
2018-05-24T04:07:54.542Z,80.85
2018-05-24T04:10:21.018Z,80.97
2018-05-24T04:12:47.684Z,80.54
2018-05-24T04:15:14.870Z,80.92
2018-05-24T04:17:41.520Z,81.40
2018-05-24T04:20:07.910Z,80.84
2018-05-24T04:22:34.649Z,80.72
2018-05-24T04:25:01.052Z,80.54
2018-05-24T04:27:27.426Z,80.19
2018-05-24T04:29:53.948Z,80.10
2018-05-24T04:32:20.396Z,80.17
2018-05-24T04:34:46.784Z,80.24
2018-05-24T04:37:13.977Z,80.04
2018-05-24T04:39:40.379Z,79.31
2018-05-24T04:42:07.622Z,79.64
2018-05-24T04:44:34.223Z,79.68
2018-05-24T04:47:00.645Z,79.76
2018-05-24T04:49:27.123Z,79.61
2018-05-24T04:51:54.511Z,80.47
2018-05-24T04:54:20.885Z,79.73
2018-05-24T04:56:47.305Z,78.53
2018-05-24T04:59:13.678Z,78.78
2018-05-24T05:01:40.169Z,78.08
2018-05-24T05:04:07.321Z,77.57
2018-05-24T05:06:33.765Z,77.54
2018-05-24T05:09:00.150Z,78.07
2018-05-24T05:11:27.248Z,77.73
2018-05-24T05:13:53.753Z,77.87
2018-05-24T05:16:20.231Z,77.47
2018-05-24T05:18:46.664Z,76.92
2018-05-24T05:21:13.114Z,76.56
2018-05-24T05:23:40.491Z,75.93
2018-05-24T05:26:06.927Z,76.04
2018-05-24T05:28:33.333Z,76.17
2018-05-24T05:31:00.461Z,74.68
2018-05-24T05:33:26.888Z,74.35
2018-05-24T05:35:53.280Z,74.21
2018-05-24T05:38:19.753Z,74.34
2018-05-24T05:40:46.337Z,74.12
2018-05-24T05:43:12.747Z,72.90
2018-05-24T05:45:39.149Z,72.99
2018-05-24T05:48:05.840Z,72.27
2018-05-24T05:50:32.977Z,71.93
2018-05-24T05:53:00.206Z,71.11
2018-05-24T05:55:26.614Z,70.97
2018-05-24T05:57:53.099Z,71.52
2018-05-24T06:00:20.292Z,71.49
2018-05-24T06:02:46.700Z,70.68
2018-05-24T06:05:13.090Z,70.90
2018-05-24T06:07:39.474Z,71.05
2018-05-24T06:10:06.205Z,71.63
2018-05-24T06:12:32.839Z,70.65
2018-05-24T06:14:59.440Z,70.17
2018-05-24T06:17:25.989Z,70.00
2018-05-24T06:19:52.913Z,69.19
2018-05-24T06:22:19.385Z,69.01
2018-05-24T06:24:46.496Z,69.20
2018-05-24T06:27:13.121Z,68.60
2018-05-24T06:29:39.500Z,67.79
2018-05-24T06:32:06.799Z,67.70
2018-05-24T06:34:33.934Z,67.68
2018-05-24T06:37:00.325Z,66.70
2018-05-24T06:39:28.109Z,66.53
2018-05-24T06:41:54.510Z,66.27
2018-05-24T06:44:21.993Z,66.21
2018-05-24T06:46:48.531Z,66.53
2018-05-24T06:49:15.629Z,66.37
2018-05-24T06:51:42.014Z,65.56
2018-05-24T06:54:08.651Z,64.94
2018-05-24T06:56:36.866Z,64.48
2018-05-24T06:59:03.243Z,65.67
2018-05-24T07:01:30.414Z,65.40
2018-05-24T07:03:56.834Z,64.48
2018-05-24T07:06:23.243Z,64.24
2018-05-24T07:08:50.430Z,64.75
2018-05-24T07:11:16.865Z,64.11
2018-05-24T07:13:43.217Z,63.26
2018-05-24T07:16:10.025Z,63.75
2018-05-24T07:18:37.412Z,64.81
2018-05-24T07:21:03.832Z,65.17
2018-05-24T07:23:31.422Z,65.32
2018-05-24T07:26:00.776Z,64.78
2018-05-24T07:28:27.985Z,65.29
2018-05-24T07:30:54.385Z,64.75
2018-05-24T07:33:20.878Z,63.50
2018-05-24T07:35:48.241Z,62.16
2018-05-24T07:38:17.770Z,62.68
2018-05-24T07:40:44.211Z,60.76
2018-05-24T07:43:10.593Z,59.83
2018-05-24T07:45:37.462Z,59.29
2018-05-24T07:48:05.489Z,58.43
2018-05-24T07:50:32.022Z,58.24
2018-05-24T07:52:59.941Z,58.24
2018-05-24T07:55:26.526Z,56.94
2018-05-24T07:57:53.676Z,56.36
2018-05-24T08:00:20.083Z,55.76
2018-05-24T08:02:46.485Z,54.07
2018-05-24T08:05:13.594Z,53.15
2018-05-24T08:07:40.170Z,52.38
2018-05-24T08:10:07.695Z,52.99
2018-05-24T08:12:35.087Z,53.21
2018-05-24T08:15:01.612Z,53.20
2018-05-24T08:17:28.750Z,53.85
2018-05-24T08:19:55.185Z,53.78
2018-05-24T08:22:22.967Z,53.47
2018-05-24T08:24:49.306Z,53.50
2018-05-24T08:27:15.777Z,53.67
2018-05-24T08:29:42.249Z,53.56
2018-05-24T08:32:08.604Z,55.21
2018-05-24T08:34:35.177Z,54.11
2018-05-24T08:37:01.611Z,54.53
2018-05-24T08:39:28.040Z,53.50
2018-05-24T08:41:54.681Z,52.39
2018-05-24T08:44:21.085Z,53.03
2018-05-24T08:46:47.913Z,53.93
2018-05-24T08:49:14.894Z,53.74
2018-05-24T08:51:41.302Z,53.40
2018-05-24T08:54:17.034Z,54.25
2018-05-24T08:56:43.765Z,53.65
2018-05-24T08:59:10.922Z,53.29
2018-05-24T09:01:38.249Z,52.66
2018-05-24T09:04:06.242Z,52.96
2018-05-24T09:06:33.590Z,53.01
2018-05-24T09:09:00.902Z,52.42
2018-05-24T09:11:27.276Z,52.22
2018-05-24T09:13:54.526Z,53.18
2018-05-24T09:16:21.681Z,53.00
2018-05-24T09:18:48.801Z,51.94
2018-05-24T09:21:15.521Z,51.28
2018-05-24T09:23:42.840Z,52.13
2018-05-24T09:26:09.302Z,51.47
2018-05-24T09:28:35.896Z,50.97
2018-05-24T09:31:03.067Z,50.80
2018-05-24T09:33:29.490Z,50.40
2018-05-24T09:35:56.768Z,49.16
2018-05-24T09:38:23.162Z,50.00
2018-05-24T09:40:50.314Z,49.92
2018-05-24T09:43:17.847Z,49.71
2018-05-24T09:45:44.381Z,49.94
2018-05-24T09:48:10.841Z,50.67
2018-05-24T09:50:38.119Z,51.25
2018-05-24T09:53:04.569Z,51.71
2018-05-24T09:55:31.035Z,50.96
2018-05-24T09:57:57.496Z,50.11
2018-05-24T10:00:24.630Z,50.05
2018-05-24T10:02:51.273Z,50.04
2018-05-24T10:05:17.767Z,49.81
2018-05-24T10:07:44.666Z,48.44
2018-05-24T10:10:11.412Z,49.00
2018-05-24T10:12:38.001Z,48.51
2018-05-24T10:15:04.625Z,48.33
2018-05-24T10:17:31.266Z,47.81
2018-05-24T10:19:57.686Z,48.41
2018-05-24T10:22:24.274Z,47.64
2018-05-24T10:24:51.590Z,46.66
2018-05-24T10:27:18.072Z,46.63
2018-05-24T10:29:45.439Z,45.20
2018-05-24T10:32:11.947Z,44.34
2018-05-24T10:34:38.485Z,44.53
2018-05-24T10:37:04.899Z,44.95
2018-05-24T10:39:31.420Z,42.74
2018-05-24T10:41:57.884Z,39.41
2018-05-24T10:44:24.272Z,39.63
2018-05-24T10:46:51.340Z,40.47
2018-05-24T10:49:17.726Z,41.35
2018-05-24T10:51:44.098Z,40.06
2018-05-24T10:54:10.559Z,41.68
2018-05-24T10:56:37.936Z,43.79
2018-05-24T10:59:04.415Z,43.76
2018-05-24T11:01:30.892Z,43.21
2018-05-24T11:03:58.565Z,43.64
2018-05-24T11:06:25.853Z,43.37
2018-05-24T11:08:52.339Z,44.34
2018-05-24T11:11:19.571Z,43.73
2018-05-24T11:13:46.029Z,44.37
2018-05-24T11:16:13.222Z,44.24
2018-05-24T11:18:39.667Z,44.47
2018-05-24T11:21:06.050Z,46.42
2018-05-24T11:23:33.202Z,46.67
2018-05-24T11:26:00.445Z,46.43
2018-05-24T11:28:27.616Z,46.43
2018-05-24T11:30:54.267Z,44.12
2018-05-24T11:33:20.661Z,43.62
2018-05-24T11:35:47.077Z,43.45
2018-05-24T11:38:13.493Z,42.30
2018-05-24T11:40:39.909Z,42.19
2018-05-24T11:43:06.643Z,43.31
2018-05-24T11:45:33.091Z,43.61
2018-05-24T11:47:59.472Z,44.80
2018-05-24T11:50:26.671Z,45.63
2018-05-24T11:52:53.079Z,45.21
2018-05-24T11:55:19.483Z,45.29
2018-05-24T11:57:46.622Z,45.15
2018-05-24T12:00:14.148Z,45.35
2018-05-24T12:02:42.984Z,45.04
2018-05-24T12:05:10.224Z,45.28
2018-05-24T12:07:36.747Z,45.06
2018-05-24T12:10:03.225Z,45.25
2018-05-24T12:12:29.623Z,44.70
2018-05-24T12:14:56.217Z,44.88
2018-05-24T12:17:22.602Z,45.73
2018-05-24T12:19:50.009Z,47.58
2018-05-24T12:22:17.187Z,51.85
2018-05-24T12:24:43.935Z,52.01
2018-05-24T12:27:10.274Z,50.92
2018-05-24T12:29:36.704Z,49.39
2018-05-24T12:32:03.194Z,49.22
2018-05-24T12:34:29.863Z,48.06
2018-05-24T12:36:56.423Z,47.40
2018-05-24T12:39:23.563Z,46.19
2018-05-24T12:41:49.974Z,44.37
2018-05-24T12:44:16.433Z,43.69
2018-05-24T12:46:43.541Z,43.31
2018-05-24T12:49:09.997Z,41.57
2018-05-24T12:51:36.407Z,40.89
2018-05-24T12:54:02.913Z,39.85
2018-05-24T12:56:29.921Z,39.06
2018-05-24T12:58:59.308Z,39.04
2018-05-24T13:01:25.728Z,38.29
2018-05-24T13:03:52.118Z,39.46
2018-05-24T13:06:18.514Z,38.54
2018-05-24T13:08:44.910Z,39.10
2018-05-24T13:11:11.352Z,39.82
2018-05-24T13:13:37.747Z,39.48
2018-05-24T13:16:04.948Z,40.22
2018-05-24T13:18:31.336Z,40.49
2018-05-24T13:20:57.840Z,39.71
2018-05-24T13:23:24.972Z,37.90
2018-05-24T13:25:51.400Z,35.21
2018-05-24T13:28:18.114Z,35.18
2018-05-24T13:30:44.676Z,41.48
2018-05-24T13:33:11.082Z,41.79
2018-05-24T13:35:37.487Z,38.06
2018-05-24T13:38:04.036Z,35.55
2018-05-24T13:40:30.502Z,36.67
2018-05-24T13:42:56.899Z,37.16
2018-05-24T13:45:23.306Z,36.87
2018-05-24T13:47:50.718Z,35.74
2018-05-24T13:50:17.111Z,36.89
2018-05-24T13:52:43.561Z,38.89
2018-05-24T13:55:10.112Z,40.14
2018-05-24T13:57:43.512Z,44.73
2018-05-24T14:00:09.985Z,43.61
2018-05-24T14:02:37.088Z,41.99
2018-05-24T14:05:03.633Z,42.31
2018-05-24T14:07:31.185Z,37.80
2018-05-24T14:09:57.536Z,37.23
2018-05-24T14:12:23.916Z,35.85
2018-05-24T14:14:50.381Z,37.25
2018-05-24T14:17:16.813Z,35.50
2018-05-24T14:19:44.610Z,35.72
2018-05-24T14:22:11.207Z,39.31
2018-05-24T14:24:37.625Z,44.61
2018-05-24T14:27:04.057Z,48.21
2018-05-24T14:29:30.508Z,50.20
2018-05-24T14:31:56.887Z,50.04
2018-05-24T14:34:23.307Z,51.94
2018-05-24T14:36:49.752Z,52.86
2018-05-24T14:39:16.408Z,52.44
2018-05-24T14:41:44.360Z,54.01
2018-05-24T14:44:10.830Z,54.12
2018-05-24T14:46:37.200Z,54.40
2018-05-24T14:49:03.715Z,54.81
2018-05-24T14:51:30.173Z,54.49
2018-05-24T14:53:56.665Z,55.38
2018-05-24T14:56:23.370Z,55.52
2018-05-24T14:58:50.591Z,55.71
2018-05-24T15:01:17.055Z,56.72
2018-05-24T15:03:44.167Z,57.40
2018-05-24T15:06:10.582Z,55.80
2018-05-24T15:08:37.058Z,55.48
2018-05-24T15:11:04.204Z,56.36
2018-05-24T15:13:49.968Z,57.22
2018-05-24T15:16:16.657Z,56.55
2018-05-24T15:18:43.775Z,52.40
2018-05-24T15:21:11.029Z,51.74
2018-05-24T15:23:38.174Z,54.40
2018-05-24T15:26:06.169Z,50.79
2018-05-24T15:28:33.302Z,51.87
2018-05-24T15:30:59.768Z,51.91
2018-05-24T15:33:26.467Z,52.64
2018-05-24T15:35:52.873Z,52.41
2018-05-24T15:38:19.382Z,52.77
2018-05-24T15:40:45.830Z,53.67
2018-05-24T15:43:12.252Z,53.08
2018-05-24T15:45:38.647Z,52.78
2018-05-24T15:48:05.114Z,54.81
2018-05-24T15:50:31.606Z,56.15
2018-05-24T15:52:58.006Z,56.43
2018-05-24T15:57:57.514Z,58.07
2018-05-24T16:00:24.030Z,58.66
2018-05-24T16:02:50.549Z,58.24
2018-05-24T16:05:18.542Z,59.47
2018-05-24T16:07:44.942Z,60.05
2018-05-24T16:10:11.350Z,61.02
2018-05-24T16:12:38.521Z,61.21
2018-05-24T16:15:04.946Z,60.67
2018-05-24T16:17:32.120Z,60.75
2018-05-24T16:19:59.334Z,61.26
2018-05-24T16:22:25.780Z,61.11
2018-05-24T16:24:52.173Z,63.27
2018-05-24T16:27:18.627Z,63.47
2018-05-24T16:29:45.078Z,62.99
2018-05-24T16:32:11.600Z,62.16
2018-05-24T16:34:38.042Z,61.25
2018-05-24T16:37:04.509Z,61.66
2018-05-24T16:39:31.680Z,61.83
2018-05-24T16:41:58.108Z,61.00
2018-05-24T16:44:24.555Z,61.68
2018-05-24T16:46:50.962Z,60.84
2018-05-24T16:49:17.387Z,61.45
2018-05-24T16:51:44.556Z,60.50
2018-05-24T16:54:11.013Z,61.10
2018-05-24T16:56:38.579Z,61.11
2018-05-24T16:59:05.069Z,60.99
2018-05-24T17:01:31.817Z,60.74
2018-05-24T17:03:58.287Z,60.77
2018-05-24T17:06:25.046Z,60.38
2018-05-24T17:08:51.436Z,61.28
2018-05-24T17:11:17.904Z,61.01
2018-05-24T17:13:44.348Z,61.90
2018-05-24T17:16:10.769Z,61.65
2018-05-24T17:18:37.153Z,61.74
2018-05-24T17:21:03.546Z,63.08
2018-05-24T17:23:30.047Z,61.33
2018-05-24T17:26:03.444Z,61.13
2018-05-24T17:28:30.923Z,61.10
2018-05-24T17:30:57.710Z,63.09
2018-05-24T17:33:24.863Z,62.91
2018-05-24T17:35:51.327Z,63.08
2018-05-24T17:38:18.899Z,63.49
2018-05-24T17:40:45.404Z,63.11
2018-05-24T17:43:11.807Z,63.76
2018-05-24T17:45:39.496Z,64.03
2018-05-24T17:48:06.901Z,64.99
2018-05-24T17:50:33.338Z,64.37
2018-05-24T17:53:00.481Z,63.91
2018-05-24T17:55:26.890Z,63.59
2018-05-24T17:57:53.758Z,62.99
2018-05-24T18:00:20.220Z,62.72
2018-05-24T18:02:47.435Z,63.75
2018-05-24T18:05:13.840Z,64.17
2018-05-24T18:07:40.230Z,64.98
2018-05-24T18:10:07.439Z,64.56
2018-05-24T18:12:34.092Z,65.08
2018-05-24T18:15:00.515Z,64.71
2018-05-24T18:17:27.205Z,65.58
2018-05-24T18:19:54.358Z,66.31
2018-05-24T18:22:22.246Z,65.97
2018-05-24T18:27:21.755Z,66.14
2018-05-24T18:29:48.259Z,67.64
2018-05-24T18:32:15.519Z,69.13
2018-05-24T18:34:42.879Z,70.17
2018-05-24T18:37:09.531Z,70.62
2018-05-24T18:39:35.936Z,71.33
2018-05-24T18:42:03.204Z,71.55
2018-05-24T18:44:30.365Z,71.60
2018-05-24T18:46:57.822Z,71.26
2018-05-24T18:49:24.283Z,70.92
2018-05-24T18:51:50.684Z,71.77
2018-05-24T18:54:17.837Z,71.82
2018-05-24T18:56:44.246Z,71.91
2018-05-24T18:59:11.524Z,71.09
2018-05-24T19:01:37.932Z,70.84
2018-05-24T19:04:05.056Z,70.11
2018-05-24T19:06:31.470Z,70.37
2018-05-24T19:08:57.916Z,70.77
2018-05-24T19:11:24.363Z,68.26
2018-05-24T19:13:50.855Z,69.34
2018-05-24T19:16:17.378Z,70.09
2018-05-24T19:18:43.840Z,69.66
2018-05-24T19:21:10.343Z,69.85
2018-05-24T19:23:36.752Z,69.44
2018-05-24T19:26:04.164Z,70.27
2018-05-24T19:28:31.425Z,70.94
2018-05-24T19:30:58.163Z,71.20
2018-05-24T19:33:24.602Z,71.60
2018-05-24T19:35:51.274Z,71.43
2018-05-24T19:38:18.437Z,71.98
2018-05-24T19:40:44.826Z,71.92
2018-05-24T19:43:11.372Z,72.42
2018-05-24T19:45:39.002Z,72.77
2018-05-24T19:48:05.525Z,73.63
2018-05-24T19:53:07.192Z,74.55
2018-05-24T19:55:33.759Z,74.45
2018-05-24T19:58:01.093Z,75.22
2018-05-24T20:00:27.530Z,75.57
2018-05-24T20:02:53.990Z,75.95
2018-05-24T20:05:20.460Z,75.48
2018-05-24T20:07:47.683Z,75.45
2018-05-24T20:10:14.352Z,75.56
2018-05-24T20:12:40.826Z,75.77
2018-05-24T20:15:09.610Z,76.25
2018-05-24T20:17:36.196Z,77.04
2018-05-24T20:20:03.444Z,77.15
2018-05-24T20:22:30.480Z,77.23
2018-05-24T20:24:56.927Z,77.82
2018-05-24T20:27:25.077Z,78.32
2018-05-24T20:29:51.511Z,78.80
2018-05-24T20:32:18.031Z,78.79
2018-05-24T20:34:44.471Z,79.21
2018-05-24T20:37:11.091Z,79.09
2018-05-24T20:39:37.522Z,78.93
2018-05-24T20:42:04.020Z,78.98
2018-05-24T20:44:31.406Z,79.37
2018-05-24T20:46:58.004Z,79.15
2018-05-24T20:49:25.264Z,80.18
2018-05-24T20:51:51.975Z,80.14
2018-05-24T20:54:18.394Z,80.73
2018-05-24T20:56:44.813Z,81.03
2018-05-24T20:59:11.246Z,81.23
2018-05-24T21:01:37.792Z,80.64
2018-05-24T21:04:04.206Z,80.27
2018-05-24T21:06:30.746Z,80.77
2018-05-24T21:08:57.256Z,81.18
2018-05-24T21:11:23.772Z,81.24
2018-05-24T21:13:50.979Z,81.55
2018-05-24T21:16:17.373Z,81.37
2018-05-24T21:18:43.890Z,81.69
2018-05-24T21:21:11.101Z,81.83
2018-05-24T21:23:37.776Z,81.93
2018-05-24T21:26:05.018Z,81.99
2018-05-24T21:28:32.281Z,81.56
2018-05-24T21:30:59.457Z,81.34
2018-05-24T21:33:25.854Z,81.18
2018-05-24T21:35:53.065Z,81.37
2018-05-24T21:38:20.505Z,81.80
2018-05-24T21:40:47.005Z,81.83
2018-05-24T21:43:14.226Z,81.99
2018-05-24T21:45:40.674Z,81.92
2018-05-24T21:48:07.839Z,81.93
2018-05-24T21:50:35.297Z,81.38
2018-05-24T21:53:01.672Z,81.66
2018-05-24T21:55:28.383Z,81.95
2018-05-24T21:57:55.013Z,82.29
2018-05-24T22:00:23.460Z,82.47
2018-05-24T22:02:52.204Z,82.65
2018-05-24T22:05:20.358Z,82.49
2018-05-24T22:07:48.389Z,82.22
2018-05-24T22:10:15.837Z,82.14
2018-05-24T22:12:42.626Z,81.72
2018-05-24T22:15:09.058Z,82.06
2018-05-24T22:17:35.490Z,82.01
2018-05-24T22:20:02.062Z,82.03
2018-05-24T22:22:28.566Z,82.17
2018-05-24T22:24:55.193Z,82.53
2018-05-24T22:27:21.673Z,82.73
2018-05-24T22:29:48.340Z,83.32
2018-05-24T22:32:14.804Z,83.42
2018-05-24T22:34:41.266Z,83.46
2018-05-24T22:37:07.738Z,83.28
2018-05-24T22:39:34.951Z,83.18
2018-05-24T22:42:01.672Z,83.14
2018-05-24T22:44:28.062Z,83.40
2018-05-24T22:46:54.461Z,83.37
2018-05-24T22:49:20.921Z,83.05
2018-05-24T22:51:47.503Z,83.19
2018-05-24T22:54:13.899Z,83.64
2018-05-24T22:56:40.328Z,83.68
2018-05-24T22:59:07.771Z,83.81
2018-05-24T23:01:34.473Z,83.59
2018-05-24T23:04:01.332Z,83.79
2018-05-24T23:06:27.844Z,84.11
2018-05-24T23:08:54.246Z,84.22
2018-05-24T23:11:21.365Z,84.89
2018-05-24T23:13:47.749Z,85.15
2018-05-24T23:16:14.397Z,85.89
2018-05-24T23:18:40.820Z,86.31
2018-05-24T23:21:07.395Z,86.49
2018-05-24T23:23:34.107Z,86.57
2018-05-24T23:26:00.944Z,86.68
2018-05-24T23:28:27.349Z,87.10
2018-05-24T23:30:54.503Z,87.10
2018-05-24T23:33:21.633Z,86.88
2018-05-24T23:35:48.030Z,86.93
2018-05-24T23:38:14.520Z,87.34
2018-05-24T23:40:41.682Z,87.09
2018-05-24T23:43:08.106Z,87.53
2018-05-24T23:45:35.327Z,87.62
2018-05-24T23:48:01.808Z,87.72
2018-05-24T23:50:28.408Z,87.31
2018-05-24T23:52:54.833Z,87.06
2018-05-24T23:55:21.517Z,87.05
2018-05-24T23:57:47.901Z,87.33
